Data for 04/11/2007

Time Sea-Level Adjusted Pressure Absolute Pressure Temperature Relative Humidity Dew Point   
(mb) (inHg) (mb) (inHg) (C) (F) (%) (C) (F)
00:05 1014 29.94 843 24.89 -0.2 31.6 67 -5.6 21.9
00:10 1014 29.94 843 24.89 -0.3 31.5 64 -6.4 20.6
00:15 1014 29.94 843 24.89 -0.2 31.6 63 -6.5 20.2
00:20 1014 29.94 843 24.89 -0.2 31.7 62 -6.6 20.2
00:25 1014 29.94 843 24.89 -0.2 31.6 62 -6.6 20.1
00:30 1014 29.94 843 24.89 -0.3 31.5 61 -6.9 19.7
00:35 1014 29.94 843 24.89 -0.2 31.7 62 -6.6 20.1
00:40 1014 29.94 843 24.89 -0.1 31.8 62 -6.5 20.4
00:45 1014 29.94 843 24.89 -0.2 31.7 63 -6.3 20.7
00:50 1014 29.94 843 24.89 -0.2 31.7 66 -5.7 21.7
00:55 1014 29.94 843 24.89 -0.3 31.4 67 -5.7 21.8
01:00 1014 29.94 843 24.89 -0.5 31.2 66 -6.1 21.1
01:05 1014 29.94 843 24.89 -0.5 31 70 -5.3 22.5
01:10 1014 29.94 843 24.89 -0.8 30.6 71 -5.3 22.4
01:15 1014 29.94 843 24.89 -0.9 30.4 73 -5.2 22.7
01:20 1014 29.94 843 24.89 -1 30.1 74 -5.1 22.7
01:25 1014 29.94 843 24.89 -1 30.2 74 -5.1 22.8
01:30 1014 29.94 843 24.89 -0.9 30.3 74 -5.1 22.8
01:35 1014 29.94 843 24.89 -1 30.2 75 -4.9 23.1
01:40 1014 29.94 843 24.89 -1.1 30 76 -4.8 23.4
01:45 1014 29.94 843 24.89 -1.2 29.9 77 -4.6 23.6
01:50 1014 29.94 843 24.89 -1.2 29.8 78 -4.7 23.6
01:55 1014 29.94 843 24.89 -1.2 29.8 76 -4.9 23.3
02:00 1014 29.94 843 24.89 -1.2 29.9 76 -4.9 23.2
02:05 1014 29.94 843 24.89 -1.1 30 75 -5 23
02:10 1014 29.94 843 24.89 -1 30.3 74 -5.1 22.9
02:15 1014 29.94 843 24.89 -0.9 30.4 74 -5 23
02:20 1014 29.94 843 24.89 -0.8 30.5 72 -5.2 22.6
02:25 1014 29.94 843 24.89 -0.8 30.6 71 -5.4 22.4
02:30 1014 29.94 843 24.89 -0.7 30.7 71 -5.3 22.4
02:35 1014 29.94 843 24.89 -0.7 30.8 70 -5.5 22.2
02:40 1014 29.94 843 24.89 -0.7 30.8 69 -5.6 21.9
02:45 1014 29.94 843 24.89 -0.6 30.9 66 -6.2 20.8
02:50 1014 29.94 843 24.89 -0.4 31.2 62 -6.9 19.7
02:55 1014 29.94 843 24.89 -0.3 31.4 62 -6.7 20
03:00 1014 29.94 843 24.89 -0.3 31.5 62 -6.6 20.1
03:05 1014 29.94 843 24.89 -0.4 31.3 64 -6.4 20.5
03:10 1014 29.94 843 24.89 -0.4 31.3 64 -6.5 20.3
03:15 1014 29.94 843 24.89 -0.5 31.2 63 -6.6 20.2
03:20 1014 29.94 843 24.89 -0.4 31.3 63 -6.6 20.1
03:25 1014 29.94 843 24.89 -0.4 31.2 64 -6.5 20.3
03:30 1014 29.94 843 24.89 -0.5 31.2 62 -6.8 19.8
03:35 1014 29.94 843 24.89 -0.4 31.3 62 -6.9 19.6
03:40 1014 29.94 843 24.89 -0.5 31.2 61 -7 19.4
03:45 1014 29.94 843 24.89 -0.4 31.3 62 -6.9 19.6
03:50 1014 29.94 843 24.89 -0.3 31.5 62 -6.7 19.9
03:55 1014 29.94 843 24.89 -0.3 31.5 61 -7 19.4
04:00 1014 29.94 843 24.89 -0.3 31.4 60 -7.1 19.2
04:05 1014 29.94 843 24.89 -0.3 31.5 60 -7.2 19.1
04:10 1014 29.94 843 24.89 -0.2 31.6 60 -7.1 19.2
04:15 1014 29.94 844 24.92 -0.3 31.5 60 -7.2 19.1
04:20 1014 29.94 844 24.92 -0.3 31.5 59 -7.2 19
04:25 1014 29.94 844 24.92 -0.3 31.5 60 -7.2 19.1
04:30 1014 29.94 844 24.92 -0.2 31.6 60 -7 19.4
04:35 1014 29.94 844 24.92 -0.2 31.6 61 -7 19.5
04:40 1014 29.94 844 24.92 -0.3 31.5 61 -6.9 19.6
04:45 1014 29.94 844 24.92 -0.3 31.5 61 -6.8 19.7
04:50 1014 29.94 844 24.92 -0.3 31.4 61 -6.9 19.6
04:55 1014 29.94 844 24.92 -0.4 31.3 62 -6.9 19.6
05:00 1014 29.94 844 24.92 -0.4 31.3 62 -6.8 19.8
05:05 1014 29.94 844 24.92 -0.4 31.2 62 -6.8 19.8
05:10 1014 29.94 844 24.92 -0.5 31.2 63 -6.7 20
05:15 1014 29.94 844 24.92 -0.5 31.2 64 -6.5 20.3
05:20 1014 29.94 844 24.92 -0.5 31.1 64 -6.5 20.3
05:25 1014 29.94 844 24.92 -0.5 31 64 -6.5 20.4
05:30 1015 29.97 844 24.92 -0.6 31 65 -6.4 20.5
05:35 1014 29.94 844 24.92 -0.5 31 65 -6.3 20.7
05:40 1015 29.97 844 24.92 -0.6 30.9 66 -6.2 20.9
05:45 1015 29.97 844 24.92 -0.6 30.9 67 -6.1 21
05:50 1015 29.97 844 24.92 -0.7 30.8 67 -6.1 21
05:55 1015 29.97 844 24.92 -0.7 30.7 67 -6.1 21
06:00 1015 29.97 844 24.92 -0.7 30.7 67 -6 21.2
06:05 1015 29.97 844 24.92 -0.8 30.6 68 -5.9 21.4
06:10 1015 29.97 844 24.92 -0.8 30.6 69 -5.8 21.6
06:15 1015 29.97 844 24.92 -0.9 30.4 70 -5.7 21.7
06:20 1015 29.97 844 24.92 -0.9 30.4 70 -5.6 21.9
06:25 1015 29.97 844 24.92 -0.9 30.3 71 -5.6 22
06:30 1015 29.97 844 24.92 -0.9 30.3 72 -5.4 22.2
06:35 1015 29.97 844 24.92 -1 30.1 73 -5.3 22.5
06:40 1015 29.97 844 24.92 -1.1 30.1 73 -5.3 22.5
06:45 1015 29.97 844 24.92 -1.1 30 74 -5.1 22.8
06:50 1015 29.97 844 24.92 -1.1 30 75 -5.1 22.9
06:55 1015 29.97 844 24.92 -1.2 29.9 75 -5.1 22.9
07:00 1015 29.97 844 24.92 -1.2 29.8 75 -5.1 22.9
07:05 1015 29.97 844 24.92 -1.2 29.8 75 -5.1 22.8
07:10 1015 29.97 844 24.92 -1.2 29.9 75 -5.1 22.8
07:15 1015 29.97 844 24.92 -1.1 30.1 74 -5.1 22.8
07:20 1015 29.97 844 24.92 -1.1 30.1 74 -5.1 22.8
07:25 1015 29.97 844 24.92 -1.1 30 74 -5.2 22.7
07:30 1015 29.97 844 24.92 -1.2 29.9 74 -5.3 22.5
07:35 1015 29.97 844 24.92 -1.1 29.9 73 -5.3 22.4
07:40 1015 29.97 844 24.92 -1.1 30.1 72 -5.5 22.2
07:45 1015 29.97 844 24.92 -1 30.2 72 -5.4 22.2
07:50 1015 29.97 844 24.92 -1 30.3 71 -5.6 22
07:55 1015 29.97 844 24.92 -0.9 30.4 70 -5.6 21.9
08:00 1015 29.97 844 24.92 -0.8 30.5 70 -5.6 22
08:05 1015 29.97 844 24.92 -0.8 30.6 70 -5.6 21.9
08:10 1015 29.97 844 24.92 -0.8 30.6 70 -5.6 21.9
08:15 1015 29.97 844 24.92 -0.6 30.9 69 -5.6 22
08:20 1015 29.97 844 24.92 -0.6 30.9 69 -5.6 21.9
08:25 1015 29.97 844 24.92 -0.5 31.1 69 -5.5 22.1
08:30 1015 29.97 844 24.92 -0.4 31.3 70 -5.3 22.5
08:35 1015 29.97 844 24.92 -0.2 31.6 69 -5.2 22.6
08:40 1015 29.97 844 24.92 -0 31.9 67 -5.5 22.1
08:45 1015 29.97 844 24.92 0.1 32.2 66 -5.6 22
08:50 1015 29.97 844 24.92 0.2 32.4 64 -5.7 21.7
08:55 1015 29.97 844 24.92 0.4 32.7 63 -5.9 21.4
09:00 1015 29.97 844 24.92 0.6 33.1 62 -5.8 21.5
09:05 1015 29.97 844 24.92 0.9 33.6 59 -6.3 20.6
09:10 1015 29.97 844 24.92 0.8 33.5 58 -6.5 20.4
09:15 1015 29.97 844 24.92 0.8 33.5 58 -6.6 20.2
09:20 1015 29.97 844 24.92 1.1 34 56 -6.8 19.8
09:25 1015 29.97 844 24.92 1.5 34.6 54 -6.8 19.7
09:30 1015 29.97 844 24.92 1.4 34.5 53 -7.2 19.1
09:35 1015 29.97 844 24.92 1.5 34.7 53 -7.1 19.2
09:40 1015 29.97 844 24.92 1.4 34.6 52 -7.3 18.9
09:45 1015 29.97 844 24.92 1.4 34.5 54 -7 19.4
09:50 1015 29.97 844 24.92 1.4 34.5 53 -7.1 19.3
09:55 1015 29.97 844 24.92 1.3 34.4 54 -7 19.3
10:00 1015 29.97 844 24.92 1.6 34.9 53 -6.9 19.6
10:05 1015 29.97 844 24.92 1.6 34.8 53 -7.1 19.3
10:10 1015 29.97 844 24.92 1.9 35.4 53 -6.6 20.1
10:15 1015 29.97 844 24.92 1.8 35.2 52 -7 19.4
10:20 1015 29.97 844 24.92 2.5 36.5 50 -7 19.5
10:25 1015 29.97 844 24.92 2.9 37.2 47 -7.2 19
10:30 1015 29.97 844 24.92 2.6 36.8 49 -7.1 19.2
10:35 1015 29.97 844 24.92 2.7 36.9 47 -7.4 18.7
10:40 1015 29.97 844 24.92 3.1 37.5 45 -7.6 18.3
10:45 1015 29.97 844 24.92 3.7 38.7 46 -6.8 19.8
10:50 1015 29.97 844 24.92 3.6 38.5 46 -6.9 19.7
10:55 1015 29.97 844 24.92 3.2 37.8 47 -7 19.4
11:00 1015 29.97 844 24.92 3.2 37.7 46 -7.3 18.9
11:05 1015 29.97 844 24.92 2.8 37 54 -5.6 21.9
11:10 1015 29.97 844 24.92 2.2 36 53 -6.4 20.5
11:15 1014 29.94 844 24.92 2.4 36.3 51 -6.6 20.1
11:20 1014 29.94 844 24.92 2.2 36 51 -6.8 19.7
11:25 1014 29.94 844 24.92 3.1 37.5 49 -6.7 20
11:30 1014 29.94 844 24.92 3.6 38.5 46 -7 19.5
11:35 1014 29.94 844 24.92 3.7 38.7 47 -6.5 20.4
11:40 1014 29.94 844 24.92 3.8 38.8 48 -6.4 20.6
11:45 1014 29.94 843 24.89 3.6 38.5 48 -6.5 20.3
11:50 1014 29.94 843 24.89 3.7 38.7 47 -6.6 20.2
11:55 1014 29.94 843 24.89 3.7 38.7 46 -6.8 19.8
12:00 1014 29.94 843 24.89 3.8 38.8 46 -6.7 19.9
12:05 1014 29.94 843 24.89 4.6 40.3 41 -7.6 18.4
12:10 1014 29.94 843 24.89 4 39.3 46 -6.4 20.4
12:15 1014 29.94 843 24.89 3.1 37.5 45 -7.7 18.2
12:20 1014 29.94 843 24.89 2.6 36.7 47 -7.6 18.4
12:25 1014 29.94 843 24.89 2.8 37.1 45 -7.9 17.7
12:30 1014 29.94 843 24.89 3.3 37.9 43 -8 17.5
12:35 1014 29.94 843 24.89 3.6 38.6 41 -8.4 16.9
12:40 1014 29.94 843 24.89 3.9 39 40 -8.6 16.5
12:45 1014 29.94 843 24.89 3.7 38.7 41 -8.4 16.8
12:50 1014 29.94 843 24.89 3.8 38.8 40 -8.7 16.4
12:55 1014 29.94 843 24.89 3.9 39 40 -8.5 16.7
13:00 1014 29.94 843 24.89 4.4 39.9 38 -8.7 16.3
13:05 1014 29.94 843 24.89 4.6 40.2 38 -8.6 16.5
13:10 1014 29.94 843 24.89 4.4 40 38 -8.8 16.1
13:15 1014 29.94 843 24.89 4.6 40.3 37 -8.7 16.3
13:20 1014 29.94 843 24.89 4.8 40.7 37 -8.8 16.1
13:25 1014 29.94 843 24.89 5.3 41.5 36 -8.7 16.4
13:30 1014 29.94 843 24.89 5.1 41.2 35 -9.2 15.5
13:35 1014 29.94 843 24.89 5 41.1 35 -9 15.7
13:40 1014 29.94 843 24.89 5.1 41.1 35 -9.1 15.6
13:45 1014 29.94 843 24.89 4.6 40.2 37 -8.9 15.9
13:50 1014 29.94 843 24.89 4.7 40.5 36 -9.3 15.3
13:55 1014 29.94 843 24.89 4.9 40.8 36 -9 15.8
14:00 1014 29.94 843 24.89 5 40.9 36 -8.7 16.3
14:05 1013 29.91 843 24.89 5.2 41.4 35 -9 15.7
14:10 1013 29.91 843 24.89 5.4 41.8 35 -8.9 16
14:15 1013 29.91 843 24.89 6.2 43.1 33 -9 15.7
14:20 1013 29.91 843 24.89 6.3 43.4 34 -8.3 17
14:25 1013 29.91 843 24.89 5.8 42.5 34 -8.7 16.3
14:30 1013 29.91 842 24.86 5.9 42.6 33 -9 15.8
14:35 1013 29.91 842 24.86 6 42.8 32 -9.3 15.3
14:40 1013 29.91 842 24.86 5.3 41.6 34 -9.3 15.2
14:45 1013 29.91 842 24.86 5.7 42.3 32 -9.6 14.8
14:50 1013 29.91 842 24.86 6.3 43.3 32 -9 15.8
14:55 1013 29.91 842 24.86 6.6 43.8 32 -8.9 16
15:00 1013 29.91 842 24.86 6.3 43.4 33 -8.7 16.4
15:05 1013 29.91 842 24.86 5.6 42.2 33 -9.3 15.2
15:10 1013 29.91 842 24.86 6.1 42.9 32 -9.4 15.1
15:15 1013 29.91 842 24.86 6.7 44.1 32 -8.8 16.1
15:20 1013 29.91 842 24.86 6.5 43.7 33 -8.5 16.6
15:25 1013 29.91 842 24.86 6.6 43.9 33 -8.7 16.3
15:30 1013 29.91 842 24.86 7.2 45 31 -8.9 16
15:35 1013 29.91 842 24.86 7.5 45.4 30 -8.9 15.9
15:40 1013 29.91 842 24.86 6.7 44.1 35 -7.7 18.1
15:45 1012 29.88 842 24.86 5.6 42.1 37 -7.9 17.7
15:50 1012 29.88 842 24.86 5.9 42.6 35 -8.4 17
15:55 1012 29.88 842 24.86 6.2 43.2 33 -8.9 15.9
16:00 1012 29.88 842 24.86 7.4 45.3 31 -8.8 16.1
16:05 1012 29.88 842 24.86 7.4 45.4 31 -8.5 16.7
16:10 1012 29.88 842 24.86 6.6 43.9 33 -8.5 16.6
16:15 1012 29.88 841 24.83 6.7 44.1 32 -8.9 16
16:20 1012 29.88 841 24.83 6.7 44.1 33 -8.4 17
16:25 1012 29.88 841 24.83 6.8 44.3 33 -8.4 16.8
16:30 1012 29.88 841 24.83 7.1 44.7 32 -8.6 16.5
16:35 1012 29.88 841 24.83 7 44.6 32 -8.6 16.5
16:40 1012 29.88 841 24.83 7.3 45.1 31 -8.6 16.5
16:45 1012 29.88 841 24.83 7.1 44.9 31 -8.9 16
16:50 1012 29.88 841 24.83 7.6 45.6 30 -8.7 16.3
16:55 1012 29.88 841 24.83 7.5 45.4 31 -8.5 16.7
17:00 1012 29.88 841 24.83 7.3 45.1 31 -8.6 16.5
17:05 1012 29.88 841 24.83 7.5 45.5 31 -8.5 16.7
17:10 1012 29.88 841 24.83 6.1 42.9 34 -8.7 16.4
17:15 1012 29.88 841 24.83 6.1 43 32 -9.3 15.2
17:20 1012 29.88 841 24.83 6.8 44.3 31 -9.1 15.6
17:25 1012 29.88 841 24.83 6.5 43.7 32 -9.1 15.7
17:30 1012 29.88 841 24.83 6.6 43.9 31 -9.5 14.8
17:35 1012 29.88 841 24.83 7.5 45.5 30 -9 15.7
17:40 1012 29.88 841 24.83 7.8 46.1 29 -9 15.8
17:45 1012 29.88 841 24.83 7.9 46.3 30 -8.5 16.6
17:50 1012 29.88 841 24.83 7.6 45.7 30 -8.9 15.9
17:55 1011 29.85 841 24.83 7.6 45.8 30 -9 15.8
18:00 1011 29.85 841 24.83 7.3 45.1 31 -8.8 16.2
18:05 1011 29.85 841 24.83 7.5 45.5 30 -8.8 16.1
18:10 1011 29.85 841 24.83 7.5 45.6 31 -8.4 16.9
18:15 1011 29.85 841 24.83 7.1 44.7 31 -8.8 16.2
18:20 1011 29.85 840 24.81 6.6 43.9 33 -8.7 16.4
18:25 1011 29.85 840 24.81 6.5 43.7 33 -8.8 16.2
18:30 1011 29.85 840 24.81 5.3 41.5 35 -9.1 15.6
18:35 1011 29.85 840 24.81 4.9 40.8 35 -9.3 15.2
18:40 1011 29.85 840 24.81 4.9 40.8 35 -9.5 15
18:45 1011 29.85 840 24.81 5.3 41.5 35 -9.2 15.5
18:50 1011 29.85 840 24.81 5.7 42.2 33 -9.4 15.2
18:55 1011 29.85 840 24.81 5.6 42.1 34 -9.2 15.5
19:00 1011 29.85 840 24.81 5.5 42 33 -9.4 15.1
19:05 1011 29.85 840 24.81 5.3 41.6 34 -9.3 15.3
19:10 1011 29.85 840 24.81 5.6 42.1 33 -9.4 15.1
19:15 1011 29.85 840 24.81 5.7 42.2 33 -9.3 15.3
19:20 1011 29.85 840 24.81 5.7 42.3 33 -9.3 15.3
19:25 1011 29.85 840 24.81 5.7 42.2 33 -9.2 15.4
19:30 1011 29.85 840 24.81 5.5 41.9 33 -9.6 14.8
19:35 1011 29.85 840 24.81 5.1 41.1 35 -9.3 15.3
19:40 1011 29.85 840 24.81 5.1 41.2 34 -9.6 14.8
19:45 1011 29.85 840 24.81 5 41 34 -9.7 14.5
19:50 1011 29.85 840 24.81 4.8 40.6 34 -9.7 14.5
19:55 1011 29.85 840 24.81 4.6 40.3 35 -9.5 14.8
20:00 1011 29.85 840 24.81 4.3 39.8 35 -9.9 14.3
20:05 1011 29.85 840 24.81 4.2 39.5 40 -8.4 16.9
20:10 1011 29.85 840 24.81 3.7 38.6 49 -6.2 20.9
20:15 1011 29.85 840 24.81 3.2 37.7 52 -5.6 21.9
20:20 1011 29.85 840 24.81 2.9 37.3 54 -5.4 22.3
20:25 1011 29.85 840 24.81 2.7 36.8 56 -5.3 22.4
20:30 1011 29.85 840 24.81 2.6 36.7 56 -5.3 22.5
20:35 1011 29.85 840 24.81 2.6 36.8 56 -5.3 22.5
20:40 1011 29.85 840 24.81 2.6 36.7 57 -5.2 22.7
20:45 1011 29.85 840 24.81 2.5 36.5 58 -4.9 23.1
20:50 1011 29.85 840 24.81 2.4 36.3 58 -5.1 22.9
20:55 1011 29.85 840 24.81 2.3 36.2 59 -5 23.1
21:00 1011 29.85 840 24.81 2.2 36 59 -5 23
21:05 1011 29.85 840 24.81 2.2 35.9 59 -4.9 23.1
21:10 1011 29.85 840 24.81 1.9 35.5 64 -4.2 24.5
21:15 1011 29.85 840 24.81 1.3 34.4 68 -3.9 24.9
21:20 1011 29.85 841 24.83 0.9 33.7 71 -3.7 25.3
21:25 1011 29.85 841 24.83 0.6 33.2 73 -3.6 25.5
21:30 1011 29.85 841 24.83 0.4 32.7 75 -3.6 25.6
21:35 1011 29.85 841 24.83 0.2 32.4 76 -3.5 25.7
21:40 1011 29.85 841 24.83 0 32.1 77 -3.5 25.7
21:45 1011 29.85 841 24.83 0 32 78 -3.4 25.9
21:50 1011 29.85 841 24.83 -0.1 31.8 79 -3.3 26
21:55 1011 29.85 840 24.81 -0.1 31.8 79 -3.3 26
22:00 1011 29.85 841 24.83 -0.2 31.6 79 -3.4 25.9
22:05 1011 29.85 841 24.83 -0.2 31.6 79 -3.4 25.8
22:10 1011 29.85 841 24.83 -0.2 31.6 79 -3.4 25.9
22:15 1011 29.85 841 24.83 -0.2 31.6 80 -3.3 26.1
22:20 1011 29.85 841 24.83 -0.3 31.4 81 -3.3 26.1
22:25 1011 29.85 840 24.81 -0.4 31.3 81 -3.3 26.1
22:30 1011 29.85 841 24.83 -0.5 31.1 81 -3.3 26
22:35 1011 29.85 841 24.83 -0.5 31.1 82 -3.3 26.1
22:40 1011 29.85 840 24.81 -0.6 30.9 82 -3.3 26.1
22:45 1011 29.85 840 24.81 -0.6 30.9 83 -3.2 26.2
22:50 1011 29.85 840 24.81 -0.7 30.7 83 -3.3 26.1
22:55 1011 29.85 840 24.81 -0.8 30.6 83 -3.3 26.1
23:00 1011 29.85 840 24.81 -0.9 30.5 84 -3.2 26.2
23:05 1011 29.85 840 24.81 -0.9 30.4 84 -3.2 26.2
23:10 1011 29.85 840 24.81 -0.9 30.4 84 -3.3 26
23:15 1011 29.85 840 24.81 -0.9 30.4 84 -3.3 26.1
23:20 1011 29.85 840 24.81 -1 30.2 84 -3.3 26
23:25 1011 29.85 840 24.81 -1 30.1 85 -3.3 26.1
23:30 1011 29.85 840 24.81 -1.1 30.1 85 -3.3 26.1
23:35 1011 29.85 840 24.81 -1.1 30.1 85 -3.3 26
23:40 1011 29.85 840 24.81 -1.1 30.1 84 -3.4 25.9
23:45 1011 29.85 840 24.81 -1.1 30 85 -3.3 26
23:50 1011 29.85 840 24.81 -1.1 30 85 -3.4 26
23:55 1011 29.85 840 24.81 -1.1 30.1 84 -3.4 25.8
24:00 1011 29.85 840 24.81 -1.1 30 84 -3.5 25.7